O'Neill, NE (68763)

12:14 PM CDT on September 04, 2015 (GMT -0500)
The O'Neill Municipal-Baker | | Change Station
CLOSE
Current Station
Airport
Location: O'Neill,
Elevation: 2031 ft
Nearby Weather Stations

Elev 2031 ft 42.47 °N, 98.69 °W | Updated 19 minutes ago

Clear
Clear
85 °F
Feels Like 87 °F
N
17
Wind Variable Wind from SSE
Gusts 21 mph

Today
High -- | Low -- °F
--% Chance of Precip.
Yesterday
High -- | Low -- °F
Precip. -- in
7:02 AM 8:03 PM
Waning Gibbous, 58% visible
Pressure 29.83 in
Visibility 10.0 miles
Clouds Clear
Heat Index 87 °F
Dew Point 66 °F
Humidity 53%
Rainfall 0.00 in
Snow Depth Not available.
UV 7 out of 12
Pollen 7.70 out of 12
Air Quality Not available.
Flu Activity Not available.
METAR KONL 041655Z AUTO 16015G18KT 10SM CLR 29/19 A2983 RMK AO2 LTG DSNT N T02940188
Pressure 29.83 in
Visibility 10.0 miles
Clouds Clear
Heat Index 87 °F
Dew Point 66 °F
Humidity 53%
Rainfall 0.00 in
Snow Depth Not available.
UV 7 out of 12
Pollen 7.70 out of 12
Air Quality Not available.
Flu Activity Not available.
METAR KONL 041655Z AUTO 16015G18KT 10SM CLR 29/19 A2983 RMK AO2 LTG DSNT N T02940188

10-Day Weather Forecast

×

Almanac

Astronomy

Sep. 04, 2015 Rise Set
Actual Time
Civil Twilight
Nautical Twilight
Astronomical Twilight
Moon
Length of Visible Light
Length of Day
Tomorrow will be .
, % of the Moon is Illuminated

Today's Extremes

State Highs State Lows

Community

WunderPhotos

Upload Photos

1,852,231 photos uploaded!

WunderBlogs® & News

Nearby

Air Quality

  Air Quality AQ Index Pollutant
Not available.

Snow Depth

Station Depth Elevation

Earthquake Activity

City Distance Mag. Time & Date
Minimum magnitude displayed is 2.5.

Coastal Water Temperatures

Place Temperature

Stations

Nearby Weather Stations

Station Location Temp. Windchill Dew Point Humidity Wind Precip. Elev Updated Type